Time;durP1;ratioP1;P1;durP2;ratioP2;P2;SDS_P1;SDS_P2;PMS_P1;PMS_P2;Temp;Humidity;BMP_temperature;BMP_pressure;BME280_temperature;BME280_humidity;BME280_pressure;Samples;Min_cycle;Max_cycle;Signal;HPM_P1;HPM_P2
2023/06/06 00:00:17;;;;;;;8.48;4.22;;;;;;;-145.70;100.00;63560.63;5052004;28;20036;-62
2023/06/06 00:02:46;;;;;;;6.95;4.20;;;;;;;-145.70;100.00;63560.63;5041309;28;20126;-61
2023/06/06 00:05:13;;;;;;;7.47;4.07;;;;;;;-145.70;100.00;63560.63;5044243;28;20036;-61
2023/06/06 00:07:45;;;;;;;7.18;4.05;;;;;;;-145.70;100.00;63560.63;5069988;28;20028;-61
2023/06/06 00:10:12;;;;;;;7.32;4.43;;;;;;;-145.70;100.00;63560.63;5052447;28;20101;-62
2023/06/06 00:12:41;;;;;;;7.50;4.50;;;;;;;-145.70;100.00;63560.63;5056062;28;20616;-62
2023/06/06 00:15:07;;;;;;;7.07;4.43;;;;;;;-145.70;100.00;63560.63;5057665;28;20048;-62
2023/06/06 00:17:33;;;;;;;6.75;4.35;;;;;;;-145.70;100.00;63560.63;5054778;28;20043;-61
2023/06/06 00:20:08;;;;;;;7.25;4.10;;;;;;;-145.70;100.00;63560.63;5053728;28;20031;-62
2023/06/06 00:22:37;;;;;;;7.15;4.20;;;;;;;-145.70;100.00;63560.63;5070628;28;20034;-61
2023/06/06 00:25:04;;;;;;;11.50;4.80;;;;;;;-145.70;100.00;63560.63;5053808;28;20020;-62
2023/06/06 00:27:29;;;;;;;7.15;3.83;;;;;;;-145.70;100.00;63560.63;5038555;28;20051;-61
2023/06/06 00:29:55;;;;;;;7.15;4.25;;;;;;;-145.70;100.00;63560.63;5054073;28;20016;-61
2023/06/06 00:32:20;;;;;;;7.38;4.15;;;;;;;-145.70;100.00;63560.63;5040451;28;20501;-61
2023/06/06 00:34:48;;;;;;;8.00;4.30;;;;;;;-145.70;100.00;63560.63;5065161;28;20922;-61
2023/06/06 00:37:13;;;;;;;7.78;4.20;;;;;;;-145.70;100.00;63560.63;5037631;28;20085;-61
2023/06/06 00:39:45;;;;;;;7.90;4.20;;;;;;;-145.70;100.00;63560.63;5044661;28;20028;-61
2023/06/06 00:42:10;;;;;;;7.72;3.85;;;;;;;-145.70;100.00;63560.63;5039428;28;20041;-61
2023/06/06 00:44:36;;;;;;;7.90;3.97;;;;;;;-145.70;100.00;63560.63;5039848;28;20474;-61
2023/06/06 00:47:02;;;;;;;6.85;4.28;;;;;;;-145.70;100.00;63560.63;5041392;28;20028;-62
2023/06/06 00:49:29;;;;;;;7.00;3.97;;;;;;;-145.70;100.00;63560.63;5057781;28;20593;-61
2023/06/06 00:51:57;;;;;;;7.60;4.57;;;;;;;-145.70;100.00;63560.63;5034921;28;20370;-60
2023/06/06 00:54:25;;;;;;;7.05;4.00;;;;;;;-145.70;100.00;63560.63;5051845;28;20072;-61
2023/06/06 00:56:51;;;;;;;6.90;4.28;;;;;;;-145.70;100.00;63560.63;5057644;28;20085;-61
2023/06/06 00:59:18;;;;;;;7.10;4.50;;;;;;;-145.70;100.00;63560.63;5039420;28;20106;-61
2023/06/06 01:01:48;;;;;;;7.82;4.43;;;;;;;-145.70;100.00;63560.63;5065098;28;20166;-61
2023/06/06 01:04:15;;;;;;;6.47;4.40;;;;;;;-145.70;100.00;63560.63;5042169;28;20044;-61
2023/06/06 01:06:41;;;;;;;7.53;4.70;;;;;;;-145.70;100.00;63560.63;5058250;28;20591;-61
2023/06/06 01:09:09;;;;;;;8.00;5.00;;;;;;;-145.70;100.00;63560.63;5036701;28;20032;-60
2023/06/06 01:11:55;;;;;;;10.57;5.15;;;;;;;-145.70;100.00;63560.63;5059097;28;20040;-61
2023/06/06 01:14:25;;;;;;;9.07;5.30;;;;;;;-145.70;100.00;63560.63;5040521;28;20108;-61
2023/06/06 01:16:52;;;;;;;8.75;5.20;;;;;;;-145.70;100.00;63560.63;5051334;28;20450;-60
2023/06/06 01:19:20;;;;;;;9.95;5.20;;;;;;;-145.70;100.00;63560.63;5053443;28;20360;-60
2023/06/06 01:21:51;;;;;;;9.43;5.38;;;;;;;-145.70;100.00;63560.63;5034277;28;20434;-60
2023/06/06 01:24:19;;;;;;;10.48;5.80;;;;;;;-145.70;100.00;63560.63;5053418;28;20506;-60
2023/06/06 01:26:45;;;;;;;8.88;5.22;;;;;;;-145.70;100.00;63560.63;5029366;28;20139;-60
2023/06/06 01:29:10;;;;;;;8.15;4.80;;;;;;;-145.70;100.00;63560.63;5038351;28;20032;-60
2023/06/06 01:32:06;;;;;;;8.45;5.00;;;;;;;-145.70;100.00;63560.63;5035380;28;20419;-61
2023/06/06 01:34:44;;;;;;;7.32;4.88;;;;;;;-145.70;100.00;63560.63;5052899;28;20466;-60
2023/06/06 01:37:40;;;;;;;9.80;5.25;;;;;;;-145.70;100.00;63560.63;5055443;28;20051;-61
2023/06/06 01:40:11;;;;;;;8.43;5.10;;;;;;;-145.70;100.00;63560.63;5010465;28;20040;-60
2023/06/06 01:42:41;;;;;;;7.85;4.70;;;;;;;-145.70;100.00;63560.63;5037006;28;20032;-61
2023/06/06 01:45:08;;;;;;;7.25;4.78;;;;;;;-145.70;100.00;63560.63;5039699;28;20063;-61
2023/06/06 01:47:34;;;;;;;9.75;4.80;;;;;;;-145.70;100.00;63560.63;5038468;28;20040;-61
2023/06/06 01:49:59;;;;;;;9.57;5.40;;;;;;;-145.70;100.00;63560.63;5013111;28;20040;-61
2023/06/06 01:52:28;;;;;;;7.82;5.15;;;;;;;-145.70;100.00;63560.63;5036023;28;20139;-59
2023/06/06 01:54:55;;;;;;;7.30;4.88;;;;;;;-145.70;100.00;63560.63;5061379;28;20024;-60
2023/06/06 01:57:20;;;;;;;10.00;5.63;;;;;;;-145.70;100.00;63560.63;5041139;28;20062;-60
2023/06/06 01:59:45;;;;;;;9.95;6.05;;;;;;;-145.70;100.00;63560.63;5037888;28;20033;-60
2023/06/06 02:02:14;;;;;;;9.85;6.45;;;;;;;-145.70;100.00;63560.63;5034310;28;20058;-61
2023/06/06 02:04:41;;;;;;;11.77;6.03;;;;;;;-145.70;100.00;63560.63;5056824;28;20063;-60
2023/06/06 02:07:06;;;;;;;9.85;5.80;;;;;;;-145.70;100.00;63560.63;5054128;28;20619;-60
2023/06/06 02:09:37;;;;;;;8.02;5.35;;;;;;;-145.70;100.00;63560.63;5046326;28;20031;-60
2023/06/06 02:12:05;;;;;;;8.75;5.30;;;;;;;-145.70;100.00;63560.63;5051295;28;20047;-60
2023/06/06 02:14:32;;;;;;;8.13;5.25;;;;;;;-145.70;100.00;63560.63;5048657;28;20032;-59
2023/06/06 02:16:58;;;;;;;8.35;5.90;;;;;;;-145.70;100.00;63560.63;5050020;28;20135;-60
2023/06/06 02:19:26;;;;;;;7.53;5.63;;;;;;;-145.70;100.00;63560.63;5073290;28;20085;-60
2023/06/06 02:21:51;;;;;;;11.02;5.88;;;;;;;-145.70;100.00;63560.63;5053153;28;20103;-61
2023/06/06 02:24:17;;;;;;;8.68;5.57;;;;;;;-145.70;100.00;63560.63;5036848;28;20861;-60
2023/06/06 02:26:44;;;;;;;8.50;5.47;;;;;;;-145.70;100.00;63560.63;5040840;28;20035;-61
2023/06/06 02:29:09;;;;;;;7.78;5.50;;;;;;;-145.70;100.00;63560.63;5055468;28;20085;-61
2023/06/06 02:31:36;;;;;;;8.52;5.40;;;;;;;-145.70;100.00;63560.63;5055371;28;20040;-60
2023/06/06 02:34:02;;;;;;;9.18;6.38;;;;;;;-145.70;100.00;63560.63;5056378;28;20749;-61
2023/06/06 02:36:29;;;;;;;8.57;5.63;;;;;;;-145.70;100.00;63560.63;5030725;28;20113;-60
2023/06/06 02:38:55;;;;;;;8.73;5.80;;;;;;;-145.70;100.00;63560.63;5053910;28;20396;-61
2023/06/06 02:41:20;;;;;;;9.02;5.72;;;;;;;-145.70;100.00;63560.63;5072554;28;20036;-61
2023/06/06 02:43:46;;;;;;;9.15;6.18;;;;;;;-145.70;100.00;63560.63;5050235;28;20162;-60
2023/06/06 02:46:11;;;;;;;17.92;6.95;;;;;;;-145.70;100.00;63560.63;5058382;28;20028;-60
2023/06/06 02:48:36;;;;;;;9.35;6.28;;;;;;;-145.70;100.00;63560.63;5049575;28;20024;-60
2023/06/06 02:51:04;;;;;;;10.02;5.70;;;;;;;-145.70;100.00;63560.63;5055642;28;20328;-61
2023/06/06 02:53:32;;;;;;;8.27;5.88;;;;;;;-145.70;100.00;63560.63;5038156;28;20678;-62
2023/06/06 02:55:58;;;;;;;9.18;5.25;;;;;;;-145.70;100.00;63560.63;5048477;28;20416;-61
2023/06/06 02:58:28;;;;;;;12.80;6.82;;;;;;;-145.70;100.00;63560.63;5048260;28;20032;-61
2023/06/06 03:00:56;;;;;;;;;;;;;;;-145.70;100.00;63560.63;5035577;28;20020;-60
2023/06/06 03:03:25;;;;;;;11.52;6.88;;;;;;;-145.70;100.00;63560.63;5059570;28;19923;-61
2023/06/06 03:05:56;;;;;;;9.15;6.68;;;;;;;-145.70;100.00;63560.63;5032992;28;20101;-60
2023/06/06 03:08:25;;;;;;;15.93;8.35;;;;;;;-145.70;100.00;63560.63;5038474;28;20032;-60
2023/06/06 03:10:56;;;;;;;9.27;6.28;;;;;;;-145.70;100.00;63560.63;5038553;28;20028;-61
2023/06/06 03:13:21;;;;;;;13.48;7.38;;;;;;;-145.70;100.00;63560.63;5055663;28;20055;-59
2023/06/06 03:15:46;;;;;;;12.77;6.68;;;;;;;-145.70;100.00;63560.63;5041950;28;20831;-61
2023/06/06 03:18:20;;;;;;;9.85;7.10;;;;;;;-145.70;100.00;63560.63;5051460;28;20030;-61
2023/06/06 03:20:46;;;;;;;9.38;6.80;;;;;;;-145.70;100.00;63560.63;5037002;28;20350;-60
2023/06/06 03:23:14;;;;;;;9.55;6.35;;;;;;;-145.70;100.00;63560.63;5050591;28;20040;-60
2023/06/06 03:25:41;;;;;;;11.02;6.82;;;;;;;-145.70;100.00;63560.63;5054530;28;20434;-61
2023/06/06 03:28:07;;;;;;;11.02;7.10;;;;;;;-145.70;100.00;63560.63;5044721;28;20171;-61
2023/06/06 03:30:37;;;;;;;10.57;7.18;;;;;;;-145.70;100.00;63560.63;5060041;28;20363;-62
2023/06/06 03:33:06;;;;;;;10.45;7.40;;;;;;;-145.70;100.00;63560.63;5072233;28;20028;-60
2023/06/06 03:35:36;;;;;;;10.68;7.15;;;;;;;-145.70;100.00;63560.63;5061464;28;20115;-60
2023/06/06 03:38:04;;;;;;;15.50;7.63;;;;;;;-145.70;100.00;63560.63;5042713;28;20028;-60
2023/06/06 03:40:30;;;;;;;12.98;7.40;;;;;;;-145.70;100.00;63560.63;5071784;28;20134;-61
2023/06/06 03:42:55;;;;;;;10.23;7.05;;;;;;;-145.70;100.00;63560.63;5044478;28;20111;-61
2023/06/06 03:45:21;;;;;;;12.45;7.68;;;;;;;-145.70;100.00;63560.63;5056557;28;20117;-60
2023/06/06 03:47:47;;;;;;;11.13;7.55;;;;;;;-145.70;100.00;63560.63;5056578;28;20039;-60
2023/06/06 03:50:15;;;;;;;10.15;6.85;;;;;;;-145.70;100.00;63560.63;5039984;28;20024;-60
2023/06/06 03:52:40;;;;;;;10.68;7.57;;;;;;;-145.70;100.00;63560.63;5055233;28;20409;-60
2023/06/06 03:55:07;;;;;;;10.85;7.47;;;;;;;-145.70;100.00;63560.63;5060165;28;20573;-61
2023/06/06 03:57:33;;;;;;;12.88;7.13;;;;;;;-145.70;100.00;63560.63;5057924;28;20860;-60
2023/06/06 04:00:15;;;;;;;10.15;6.93;;;;;;;-145.70;100.00;63560.63;5038076;28;20470;-61
2023/06/06 04:02:41;;;;;;;9.50;7.10;;;;;;;-145.70;100.00;63560.63;5065828;28;20258;-60
2023/06/06 04:05:08;;;;;;;11.07;7.55;;;;;;;-145.70;100.00;63560.63;5047239;28;20029;-60
2023/06/06 04:07:36;;;;;;;10.60;6.80;;;;;;;-145.70;100.00;63560.63;5060283;28;21315;-61
2023/06/06 04:10:02;;;;;;;9.73;7.50;;;;;;;-145.70;100.00;63560.63;5045828;28;20822;-61
2023/06/06 04:12:28;;;;;;;9.70;6.53;;;;;;;-145.70;100.00;63560.63;5053709;28;20775;-61
2023/06/06 04:14:53;;;;;;;10.38;6.90;;;;;;;-145.70;100.00;63560.63;5062777;28;20546;-60
2023/06/06 04:17:19;;;;;;;8.98;6.70;;;;;;;-145.70;100.00;63560.63;5055090;28;20510;-61
2023/06/06 04:19:47;;;;;;;10.75;6.43;;;;;;;-145.70;100.00;63560.63;5070340;28;20383;-60
2023/06/06 04:22:13;;;;;;;10.63;6.78;;;;;;;-145.70;100.00;63560.63;5055272;28;20051;-61
2023/06/06 04:24:40;;;;;;;9.80;6.35;;;;;;;-145.70;100.00;63560.63;5077963;28;20260;-61
2023/06/06 04:27:09;;;;;;;9.40;6.10;;;;;;;-145.70;100.00;63560.63;5058697;28;20052;-60
2023/06/06 04:29:37;;;;;;;10.90;6.70;;;;;;;-145.70;100.00;63560.63;5057670;28;20020;-60
2023/06/06 04:32:18;;;;;;;9.32;6.13;;;;;;;-145.70;100.00;63560.63;5076584;28;20032;-60
2023/06/06 04:34:45;;;;;;;8.68;5.80;;;;;;;-145.70;100.00;63560.63;5056942;28;20020;-60
2023/06/06 04:37:13;;;;;;;9.73;6.20;;;;;;;-145.70;100.00;63560.63;5044853;28;20044;-60
2023/06/06 04:39:39;;;;;;;11.05;6.18;;;;;;;-145.70;100.00;63560.63;5039206;28;20136;-60
2023/06/06 04:42:06;;;;;;;9.30;5.68;;;;;;;-145.70;100.00;63560.63;5057983;28;20031;-61
2023/06/06 04:44:41;;;;;;;10.55;5.28;;;;;;;-145.70;100.00;63560.63;5051737;28;20036;-60
2023/06/06 04:47:10;;;;;;;9.38;5.95;;;;;;;-145.70;100.00;63560.63;5058426;28;20028;-61
2023/06/06 04:49:38;;;;;;;9.70;6.25;;;;;;;-145.70;100.00;63560.63;5051798;28;20035;-60
2023/06/06 04:52:05;;;;;;;11.98;6.22;;;;;;;-145.70;100.00;63560.63;5054297;28;21454;-60
2023/06/06 04:54:32;;;;;;;9.82;6.18;;;;;;;-145.70;100.00;63560.63;5074810;28;20107;-60
2023/06/06 04:57:02;;;;;;;9.15;6.10;;;;;;;-145.70;100.00;63560.63;5032959;28;20040;-60
2023/06/06 04:59:32;;;;;;;10.07;6.30;;;;;;;-145.70;100.00;63560.63;5058557;28;20082;-60
2023/06/06 05:01:58;;;;;;;9.57;6.13;;;;;;;-145.70;100.00;63560.63;5065823;28;20081;-61
2023/06/06 05:04:24;;;;;;;8.70;5.80;;;;;;;-145.70;100.00;63560.63;5055611;28;20785;-60
2023/06/06 05:06:50;;;;;;;8.52;6.07;;;;;;;-145.70;100.00;63560.63;5073192;28;20806;-60
2023/06/06 05:09:18;;;;;;;8.90;5.95;;;;;;;-145.70;100.00;63560.63;5038771;28;20028;-60
2023/06/06 05:11:48;;;;;;;8.93;6.75;;;;;;;-145.70;100.00;63560.63;5075570;28;20155;-60
2023/06/06 05:14:14;;;;;;;9.23;6.20;;;;;;;-145.70;100.00;63560.63;5034898;28;20138;-61
2023/06/06 05:16:46;;;;;;;11.10;6.63;;;;;;;-145.70;100.00;63560.63;5042706;28;21270;-59
2023/06/06 05:19:15;;;;;;;10.05;6.35;;;;;;;-145.70;100.00;63560.63;5052610;28;20774;-61
2023/06/06 05:21:43;;;;;;;8.18;5.97;;;;;;;-145.70;100.00;63560.63;5051922;28;20042;-60
2023/06/06 05:24:11;;;;;;;10.80;6.72;;;;;;;-145.70;100.00;63560.63;5029847;28;20120;-61
2023/06/06 05:26:36;;;;;;;8.38;5.95;;;;;;;-145.70;100.00;63560.63;5057643;28;20036;-61
2023/06/06 05:29:07;;;;;;;10.45;6.57;;;;;;;-145.70;100.00;63560.63;5036785;28;20751;-60
2023/06/06 05:31:33;;;;;;;10.18;6.13;;;;;;;-145.70;100.00;63560.63;5069313;28;20025;-61
2023/06/06 05:33:59;;;;;;;8.63;5.97;;;;;;;-145.70;100.00;63560.63;5071105;28;20129;-59
2023/06/06 05:36:27;;;;;;;9.68;5.80;;;;;;;-145.70;100.00;63560.63;5038749;28;20155;-61
2023/06/06 05:38:55;;;;;;;9.93;6.15;;;;;;;-145.70;100.00;63560.63;5032228;28;20032;-59
2023/06/06 05:41:23;;;;;;;9.50;5.93;;;;;;;-145.70;100.00;63560.63;5034196;28;20478;-61
2023/06/06 05:43:51;;;;;;;9.85;5.63;;;;;;;-145.70;100.00;63560.63;5060222;28;20114;-60
2023/06/06 05:46:18;;;;;;;8.93;6.63;;;;;;;-145.70;100.00;63560.63;5069575;28;20067;-61
2023/06/06 05:48:43;;;;;;;9.95;6.30;;;;;;;-145.70;100.00;63560.63;5051560;28;20155;-61
2023/06/06 05:51:09;;;;;;;9.77;6.40;;;;;;;-145.70;100.00;63560.63;5034204;28;20047;-60
2023/06/06 05:53:38;;;;;;;10.75;6.45;;;;;;;-145.70;100.00;63560.63;5043372;28;20106;-61
2023/06/06 05:56:04;;;;;;;9.20;6.40;;;;;;;-145.70;100.00;63560.63;5054927;28;20634;-61
2023/06/06 05:58:29;;;;;;;9.18;6.00;;;;;;;-145.70;100.00;63560.63;5069929;28;20027;-61
2023/06/06 06:00:55;;;;;;;8.38;5.93;;;;;;;-145.70;100.00;63560.63;5071862;28;20020;-60
2023/06/06 06:03:20;;;;;;;9.48;6.20;;;;;;;-145.70;100.00;63560.63;5056786;28;20044;-60
2023/06/06 06:05:49;;;;;;;9.68;5.85;;;;;;;-145.70;100.00;63560.63;5047855;28;20039;-61
2023/06/06 06:08:17;;;;;;;8.80;6.00;;;;;;;-145.70;100.00;63560.63;5056901;28;20024;-61
2023/06/06 06:10:43;;;;;;;11.00;5.97;;;;;;;-145.70;100.00;63560.63;5068344;28;20033;-60
2023/06/06 06:13:08;;;;;;;8.85;5.95;;;;;;;-145.70;100.00;63560.63;5042323;28;20066;-61
2023/06/06 06:15:37;;;;;;;10.05;5.55;;;;;;;-145.70;100.00;63560.63;5071748;28;20171;-61
2023/06/06 06:18:03;;;;;;;10.80;5.45;;;;;;;-145.70;100.00;63560.63;5055889;28;20036;-61
2023/06/06 06:20:29;;;;;;;9.30;5.40;;;;;;;-145.70;100.00;63560.63;5063503;28;20382;-62
2023/06/06 06:22:54;;;;;;;9.80;5.88;;;;;;;-145.70;100.00;63560.63;5040624;28;20024;-61
2023/06/06 06:25:20;;;;;;;9.23;5.68;;;;;;;-145.70;100.00;63560.63;5040843;28;20028;-60
2023/06/06 06:27:46;;;;;;;8.20;5.35;;;;;;;-145.70;100.00;63560.63;5059938;28;20037;-60
2023/06/06 06:30:15;;;;;;;8.05;4.85;;;;;;;-145.70;100.00;63560.63;5057011;28;20019;-61
2023/06/06 06:32:43;;;;;;;9.73;5.63;;;;;;;-145.70;100.00;63560.63;5039597;28;21423;-61
2023/06/06 06:35:09;;;;;;;9.25;4.25;;;;;;;-145.70;100.00;63560.63;5048767;28;20055;-61
2023/06/06 06:37:37;;;;;;;7.20;4.32;;;;;;;-145.70;100.00;63560.63;5063608;28;20115;-60
2023/06/06 06:40:10;;;;;;;7.50;4.22;;;;;;;-145.70;100.00;63560.63;5053053;28;20028;-61
2023/06/06 06:42:44;;;;;;;8.75;4.93;;;;;;;-145.70;100.00;63560.63;5074661;28;20048;-60
2023/06/06 06:45:14;;;;;;;7.70;4.78;;;;;;;-145.70;100.00;63560.63;5058216;28;20390;-61
2023/06/06 06:47:40;;;;;;;8.32;4.93;;;;;;;-145.70;100.00;63560.63;5061469;28;20050;-60
2023/06/06 06:50:06;;;;;;;7.43;4.20;;;;;;;-145.70;100.00;63560.63;5057812;28;20035;-62
2023/06/06 06:52:35;;;;;;;7.15;4.50;;;;;;;-145.70;100.00;63560.63;5032539;28;20031;-60
2023/06/06 06:55:04;;;;;;;7.97;4.70;;;;;;;-145.70;100.00;63560.63;5053921;28;20044;-61
2023/06/06 06:57:32;;;;;;;7.40;4.57;;;;;;;-145.70;100.00;63560.63;5062575;28;20278;-60
2023/06/06 07:00:00;;;;;;;8.90;4.43;;;;;;;-145.70;100.00;63560.63;5060483;28;20016;-61
2023/06/06 07:02:30;;;;;;;7.55;4.38;;;;;;;-145.70;100.00;63560.63;5037384;28;20919;-61
2023/06/06 07:04:59;;;;;;;7.25;4.32;;;;;;;-145.70;100.00;63560.63;5056261;28;20044;-60
2023/06/06 07:07:25;;;;;;;5.77;3.90;;;;;;;-145.70;100.00;63560.63;5046127;28;20039;-60
2023/06/06 07:09:51;;;;;;;6.40;4.50;;;;;;;-145.70;100.00;63560.63;5065518;28;20030;-60
2023/06/06 07:12:19;;;;;;;5.68;3.75;;;;;;;-145.70;100.00;63560.63;5061746;28;20062;-62
2023/06/06 07:14:45;;;;;;;6.85;4.18;;;;;;;-145.70;100.00;63560.63;5041664;28;20020;-61
2023/06/06 07:17:10;;;;;;;9.43;4.60;;;;;;;-145.70;100.00;63560.63;5080097;28;20043;-60
2023/06/06 07:19:36;;;;;;;8.15;4.13;;;;;;;-145.70;100.00;63560.63;5053864;28;20158;-61
2023/06/06 07:22:05;;;;;;;7.07;4.18;;;;;;;-145.70;100.00;63560.63;5037408;28;20129;-60
2023/06/06 07:24:35;;;;;;;6.32;4.13;;;;;;;-145.70;100.00;63560.63;5055411;28;20024;-62
2023/06/06 07:27:02;;;;;;;7.43;4.35;;;;;;;-145.70;100.00;63560.63;5056638;28;21025;-60
2023/06/06 07:29:29;;;;;;;7.32;3.90;;;;;;;-145.70;100.00;63560.63;5061099;28;20135;-60
2023/06/06 07:31:55;;;;;;;7.50;3.65;;;;;;;-145.70;100.00;63560.63;5051763;28;20502;-61
2023/06/06 07:34:21;;;;;;;6.03;3.90;;;;;;;-145.70;100.00;63560.63;5061039;28;20028;-61
2023/06/06 07:36:46;;;;;;;6.47;3.80;;;;;;;-145.70;100.00;63560.63;5054234;28;20032;-60
2023/06/06 07:39:11;;;;;;;6.82;3.88;;;;;;;-145.70;100.00;63560.63;5060135;28;20914;-60
2023/06/06 07:41:38;;;;;;;7.10;3.53;;;;;;;-145.70;100.00;63560.63;5052558;28;20463;-60
2023/06/06 07:44:04;;;;;;;6.60;3.75;;;;;;;-145.70;100.00;63560.63;5057263;28;20028;-60
2023/06/06 07:46:29;;;;;;;6.85;3.88;;;;;;;-145.70;100.00;63560.63;5031713;28;20036;-61
2023/06/06 07:48:57;;;;;;;5.57;3.33;;;;;;;-145.70;100.00;63560.63;5036786;28;20056;-60
2023/06/06 07:51:22;;;;;;;6.93;3.88;;;;;;;-145.70;100.00;63560.63;5061974;28;20017;-60
2023/06/06 07:53:50;;;;;;;7.43;3.92;;;;;;;-145.70;100.00;63560.63;5040072;28;20135;-61
2023/06/06 07:56:16;;;;;;;7.15;4.13;;;;;;;-145.70;100.00;63560.63;5062391;28;20079;-59
2023/06/06 07:58:43;;;;;;;7.68;3.50;;;;;;;-145.70;100.00;63560.63;5057465;28;20466;-60
2023/06/06 08:01:12;;;;;;;5.60;3.50;;;;;;;-145.70;100.00;63560.63;5057497;28;20032;-60
2023/06/06 08:03:38;;;;;;;6.22;3.42;;;;;;;-145.70;100.00;63560.63;5039980;28;20577;-59
2023/06/06 08:06:05;;;;;;;7.20;3.40;;;;;;;-145.70;100.00;63560.63;5059926;28;20244;-60
2023/06/06 08:08:31;;;;;;;5.57;3.00;;;;;;;-145.70;100.00;63560.63;5063390;28;20167;-60
2023/06/06 08:10:57;;;;;;;4.88;2.85;;;;;;;-145.70;100.00;63560.63;5038065;28;20027;-60
2023/06/06 08:13:25;;;;;;;5.07;2.85;;;;;;;-145.70;100.00;63560.63;5061484;28;20477;-59
2023/06/06 08:15:50;;;;;;;5.45;2.95;;;;;;;-145.70;100.00;63560.63;5052352;28;20144;-61
2023/06/06 08:18:18;;;;;;;7.20;3.05;;;;;;;-145.70;100.00;63560.63;5042669;28;20016;-60
2023/06/06 08:20:43;;;;;;;5.00;2.75;;;;;;;-145.70;100.00;63560.63;5054127;28;20032;-60
2023/06/06 08:23:09;;;;;;;5.47;2.70;;;;;;;-145.70;100.00;63560.63;5058228;28;20035;-61
2023/06/06 08:25:38;;;;;;;5.00;2.63;;;;;;;-145.70;100.00;63560.63;5053653;28;20032;-59
2023/06/06 08:28:03;;;;;;;5.00;2.70;;;;;;;-145.70;100.00;63560.63;5078999;28;20107;-60
2023/06/06 08:30:32;;;;;;;6.45;3.10;;;;;;;-145.70;100.00;63560.63;5074240;28;20431;-61
2023/06/06 08:32:57;;;;;;;5.75;2.78;;;;;;;-145.70;100.00;63560.63;5062213;28;20024;-60
2023/06/06 08:35:24;;;;;;;5.03;2.75;;;;;;;-145.70;100.00;63560.63;5034420;28;20767;-60
2023/06/06 08:37:50;;;;;;;6.18;2.80;;;;;;;-145.70;100.00;63560.63;5060620;28;20048;-59
2023/06/06 08:40:17;;;;;;;5.45;2.58;;;;;;;-145.70;100.00;63560.63;5053806;28;20406;-59
2023/06/06 08:42:45;;;;;;;5.60;2.70;;;;;;;-145.70;100.00;63560.63;5045932;28;20028;-59
2023/06/06 08:45:13;;;;;;;5.68;2.70;;;;;;;-145.70;100.00;63560.63;5039990;28;20106;-59
2023/06/06 08:47:39;;;;;;;4.90;2.80;;;;;;;-145.70;100.00;63560.63;5059324;28;20024;-59
2023/06/06 08:50:07;;;;;;;4.85;2.60;;;;;;;-145.70;100.00;63560.63;5056787;28;20066;-60
2023/06/06 08:52:37;;;;;;;5.32;2.83;;;;;;;-145.70;100.00;63560.63;5056447;28;20036;-60
2023/06/06 08:55:04;;;;;;;4.90;2.88;;;;;;;-145.70;100.00;63560.63;5060543;28;20070;-59
2023/06/06 08:57:32;;;;;;;5.97;2.80;;;;;;;-145.70;100.00;63560.63;5052043;28;20039;-60
2023/06/06 09:00:10;;;;;;;6.10;2.97;;;;;;;-145.70;100.00;63560.63;5075314;28;20212;-59
2023/06/06 09:02:40;;;;;;;5.22;2.75;;;;;;;-145.70;100.00;63560.63;5055119;28;20016;-60
2023/06/06 09:05:08;;;;;;;;;;;;;;;-145.70;100.00;63560.63;5060149;28;20023;-59
2023/06/06 09:07:33;;;;;;;5.97;2.97;;;;;;;-145.70;100.00;63560.63;5058550;28;19912;-59
2023/06/06 09:09:59;;;;;;;6.05;2.63;;;;;;;-145.70;100.00;63560.63;5055237;28;20040;-60
2023/06/06 09:12:27;;;;;;;5.00;2.45;;;;;;;-145.70;100.00;63560.63;5042872;28;20031;-59
2023/06/06 09:14:55;;;;;;;5.22;2.50;;;;;;;-145.70;100.00;63560.63;5060283;28;20123;-60
2023/06/06 09:17:20;;;;;;;5.90;3.05;;;;;;;-145.70;100.00;63560.63;5077720;28;20031;-60
2023/06/06 09:19:46;;;;;;;6.75;3.08;;;;;;;-145.70;100.00;63560.63;5068863;28;20028;-59
2023/06/06 09:22:11;;;;;;;5.50;3.05;;;;;;;-145.70;100.00;63560.63;5049863;28;20482;-61
2023/06/06 09:24:44;;;;;;;5.78;2.85;;;;;;;-145.70;100.00;63560.63;5056398;28;20033;-60
2023/06/06 09:27:26;;;;;;;6.03;2.92;;;;;;;-145.70;100.00;63560.63;5030219;28;20028;-60
2023/06/06 09:29:54;;;;;;;5.53;3.25;;;;;;;-145.70;100.00;63560.63;5074550;28;20118;-59
2023/06/06 09:32:30;;;;;;;6.03;3.30;;;;;;;-145.70;100.00;63560.63;5038795;28;20016;-59
2023/06/06 09:35:03;;;;;;;5.70;3.10;;;;;;;-145.70;100.00;63560.63;5054820;28;20070;-60
2023/06/06 09:37:31;;;;;;;6.75;3.17;;;;;;;-145.70;100.00;63560.63;5057151;28;20030;-60
2023/06/06 09:40:10;;;;;;;5.95;3.03;;;;;;;-145.70;100.00;63560.63;5039822;28;20020;-60
2023/06/06 09:42:40;;;;;;;7.40;3.40;;;;;;;-145.70;100.00;63560.63;5060876;28;20027;-60
2023/06/06 09:45:11;;;;;;;5.70;3.15;;;;;;;-145.70;100.00;63560.63;5051966;28;20045;-60
2023/06/06 09:47:41;;;;;;;6.53;3.60;;;;;;;-145.70;100.00;63560.63;5067992;28;20569;-60
2023/06/06 09:50:07;;;;;;;5.45;2.97;;;;;;;-145.70;100.00;63560.63;5053450;28;20039;-59
2023/06/06 09:52:32;;;;;;;6.63;3.53;;;;;;;-145.70;100.00;63560.63;5060739;28;20031;-60
2023/06/06 09:55:00;;;;;;;5.80;3.17;;;;;;;-145.70;100.00;63560.63;5038267;28;20052;-60
2023/06/06 09:57:26;;;;;;;5.60;3.17;;;;;;;-145.70;100.00;63560.63;5071486;28;20047;-59
2023/06/06 09:59:53;;;;;;;6.20;3.25;;;;;;;-145.70;100.00;63560.63;5039429;28;20028;-59
2023/06/06 10:02:20;;;;;;;6.38;2.95;;;;;;;-145.70;100.00;63560.63;5036509;28;20024;-59
2023/06/06 10:04:47;;;;;;;5.35;3.17;;;;;;;-145.70;100.00;63560.63;5057641;28;20501;-59
2023/06/06 10:07:16;;;;;;;6.60;3.20;;;;;;;-145.70;100.00;63560.63;5038803;28;20745;-60
2023/06/06 10:09:44;;;;;;;6.05;3.55;;;;;;;-145.70;100.00;63560.63;5055237;28;20024;-60
2023/06/06 10:12:14;;;;;;;5.80;3.50;;;;;;;-145.70;100.00;63560.63;5047846;28;20031;-61
2023/06/06 10:14:42;;;;;;;7.47;3.85;;;;;;;-145.70;100.00;63560.63;5039996;28;20111;-60
2023/06/06 10:17:07;;;;;;;5.40;3.20;;;;;;;-145.70;100.00;63560.63;5049971;28;20070;-61
2023/06/06 10:19:33;;;;;;;6.93;3.58;;;;;;;-145.70;100.00;63560.63;5030694;28;20328;-61
2023/06/06 10:22:02;;;;;;;6.63;3.33;;;;;;;-145.70;100.00;63560.63;5062520;28;20502;-61
2023/06/06 10:24:28;;;;;;;5.35;3.15;;;;;;;-145.70;100.00;63560.63;5042714;28;20135;-60
2023/06/06 10:27:16;;;;;;;7.25;3.65;;;;;;;-145.70;100.00;63560.63;5034296;28;20046;-59
2023/06/06 10:29:55;;;;;;;5.50;3.00;;;;;;;-145.70;100.00;63560.63;5040636;28;20068;-61
2023/06/06 10:32:34;;;;;;;6.53;3.45;;;;;;;-145.70;100.00;63560.63;5025418;28;20039;-59
2023/06/06 10:35:03;;;;;;;5.15;3.13;;;;;;;-145.70;100.00;63560.63;5049625;28;20024;-60
2023/06/06 10:37:33;;;;;;;4.75;2.80;;;;;;;-145.70;100.00;63560.63;5044962;28;20021;-60
2023/06/06 10:40:05;;;;;;;5.38;2.70;;;;;;;-145.70;100.00;63560.63;5035316;28;20016;-61
2023/06/06 10:42:37;;;;;;;6.10;3.00;;;;;;;-145.70;100.00;63560.63;5029206;28;20042;-61
2023/06/06 10:45:03;;;;;;;7.32;2.92;;;;;;;-145.70;100.00;63560.63;5065217;28;20081;-61
2023/06/06 10:47:33;;;;;;;5.00;2.60;;;;;;;-145.70;100.00;63560.63;5071514;28;20028;-61
2023/06/06 10:50:08;;;;;;;5.40;2.72;;;;;;;-145.70;100.00;63560.63;5065451;28;20032;-61
2023/06/06 10:52:42;;;;;;;5.43;2.92;;;;;;;-145.70;100.00;63560.63;5066634;28;20044;-61
2023/06/06 10:55:28;;;;;;;7.88;3.13;;;;;;;-145.70;100.00;63560.63;5044201;28;20040;-61
2023/06/06 10:58:04;;;;;;;5.13;2.67;;;;;;;-145.70;100.00;63560.63;5036194;28;20063;-61
2023/06/06 11:00:33;;;;;;;4.72;2.30;;;;;;;-145.70;100.00;63560.63;5027736;28;20051;-60
2023/06/06 11:03:10;;;;;;;4.25;2.35;;;;;;;-145.70;100.00;63560.63;5066789;28;20104;-60
2023/06/06 11:06:00;;;;;;;5.20;2.78;;;;;;;-145.70;100.00;63560.63;5032665;28;20109;-60
2023/06/06 11:08:56;;;;;;;4.68;2.30;;;;;;;-145.70;100.00;63560.63;5067714;28;20510;-61
2023/06/06 11:11:31;;;;;;;5.60;2.38;;;;;;;-145.70;100.00;63560.63;5046086;28;20059;-61
2023/06/06 11:13:57;;;;;;;5.25;2.60;;;;;;;-145.70;100.00;63560.63;5045983;28;20048;-60